createdAt,value
2019-03-13T00:01:10.891Z,59.80
2019-03-13T00:03:39.425Z,59.90
2019-03-13T00:06:08.415Z,61.60
2019-03-13T00:08:37.160Z,60.20
2019-03-13T00:11:08.309Z,62.00
2019-03-13T00:13:36.853Z,60.70
2019-03-13T00:16:05.296Z,61.20
2019-03-13T00:18:33.813Z,59.40
2019-03-13T00:21:02.260Z,59.10
2019-03-13T00:23:30.725Z,58.50
2019-03-13T00:25:59.442Z,58.20
2019-03-13T00:28:27.908Z,58.30
2019-03-13T00:30:56.415Z,59.20
2019-03-13T00:33:27.599Z,58.00
2019-03-13T00:35:56.025Z,57.60
2019-03-13T00:38:24.495Z,56.60
2019-03-13T00:40:52.953Z,57.20
2019-03-13T00:43:21.413Z,58.10
2019-03-13T00:45:49.861Z,58.20
2019-03-13T00:48:18.332Z,59.00
2019-03-13T00:50:47.035Z,59.60
2019-03-13T00:53:21.225Z,63.70
2019-03-13T00:55:49.667Z,65.50
2019-03-13T00:58:19.038Z,67.30
2019-03-13T01:00:49.284Z,69.80
2019-03-13T01:03:22.726Z,71.70
2019-03-13T01:06:09.261Z,79.30
2019-03-13T01:08:37.798Z,84.50
2019-03-13T01:11:06.618Z,90.80
2019-03-13T01:13:35.358Z,91.00
2019-03-13T01:16:03.867Z,92.10
2019-03-13T01:18:35.050Z,92.50
2019-03-13T01:21:03.498Z,93.60
2019-03-13T01:23:32.029Z,95.40
2019-03-13T01:26:00.536Z,96.80
2019-03-13T01:28:29.014Z,98.70
2019-03-13T01:31:02.076Z,99.80
2019-03-13T01:33:30.544Z,99.90
2019-03-13T01:36:03.616Z,99.90
2019-03-13T01:38:32.100Z,99.90
2019-03-13T01:41:00.534Z,99.90
2019-03-13T01:43:29.256Z,99.90
2019-03-13T01:45:57.778Z,99.90
2019-03-13T01:48:26.229Z,99.90
2019-03-13T01:50:54.691Z,99.90
2019-03-13T01:53:23.135Z,99.90
2019-03-13T01:55:51.601Z,99.90
2019-03-13T01:58:20.043Z,99.90
2019-03-13T02:00:48.802Z,99.90
2019-03-13T02:03:17.581Z,99.90
2019-03-13T02:05:46.376Z,99.90
2019-03-13T02:08:14.822Z,99.90
2019-03-13T02:10:43.288Z,99.90
2019-03-13T02:13:11.799Z,99.90
2019-03-13T02:15:40.585Z,99.90
2019-03-13T02:18:09.029Z,99.90
2019-03-13T02:20:40.448Z,99.90
2019-03-13T02:23:08.887Z,99.90
2019-03-13T02:25:37.454Z,99.90
2019-03-13T02:28:05.892Z,99.90
2019-03-13T02:30:34.768Z,99.90
2019-03-13T02:33:03.226Z,99.90
2019-03-13T02:35:31.755Z,99.90
2019-03-13T02:38:03.163Z,99.90
2019-03-13T02:40:31.956Z,99.90
2019-03-13T02:43:00.404Z,99.90
2019-03-13T02:45:28.856Z,99.90
2019-03-13T02:47:57.565Z,99.90
2019-03-13T02:50:26.028Z,99.90
2019-03-13T02:52:54.466Z,99.90
2019-03-13T02:55:23.004Z,99.90
2019-03-13T02:57:51.441Z,99.90
2019-03-13T03:00:27.606Z,99.90
2019-03-13T03:03:00.447Z,99.90
2019-03-13T03:05:28.908Z,99.90
2019-03-13T03:07:57.624Z,99.90
2019-03-13T03:10:26.079Z,99.90
2019-03-13T03:12:54.514Z,99.90
2019-03-13T03:15:22.971Z,99.90
2019-03-13T03:17:51.422Z,99.90
2019-03-13T03:20:22.806Z,99.90
2019-03-13T03:22:51.329Z,99.90
2019-03-13T03:25:19.857Z,99.90
2019-03-13T03:27:48.591Z,99.90
2019-03-13T03:30:22.531Z,99.90
2019-03-13T03:32:51.257Z,99.90
2019-03-13T03:35:25.960Z,99.90
2019-03-13T03:37:56.287Z,99.90
2019-03-13T03:40:24.820Z,99.90
2019-03-13T03:42:53.541Z,99.90
2019-03-13T03:45:22.068Z,99.90
2019-03-13T03:47:50.773Z,99.90
2019-03-13T03:50:20.196Z,99.90
2019-03-13T03:52:49.212Z,99.90
2019-03-13T03:55:20.694Z,99.90
2019-03-13T03:57:49.136Z,99.90
2019-03-13T04:00:18.936Z,99.90
2019-03-13T04:02:47.445Z,99.90
2019-03-13T04:05:16.158Z,99.90
2019-03-13T04:07:48.134Z,99.90
2019-03-13T04:10:17.051Z,99.90
2019-03-13T04:12:45.587Z,99.90
2019-03-13T04:15:15.415Z,99.90
2019-03-13T04:17:44.635Z,99.90
2019-03-13T04:20:18.746Z,99.90
2019-03-13T04:22:47.204Z,99.90
2019-03-13T04:25:27.230Z,99.90
2019-03-13T04:27:55.952Z,99.90
2019-03-13T04:30:24.446Z,99.90
2019-03-13T04:32:55.712Z,99.90
2019-03-13T04:35:24.147Z,99.90
2019-03-13T04:37:52.692Z,99.90
2019-03-13T04:40:21.216Z,99.90
2019-03-13T04:42:51.210Z,99.90
2019-03-13T04:45:21.454Z,99.90
2019-03-13T04:47:49.912Z,99.90
2019-03-13T04:50:18.355Z,99.90
2019-03-13T04:52:46.817Z,99.90
2019-03-13T04:55:16.787Z,99.90
2019-03-13T04:57:45.266Z,99.90
2019-03-13T05:00:20.491Z,99.90
2019-03-13T05:02:49.238Z,99.90
2019-03-13T05:05:44.246Z,99.90
2019-03-13T05:08:40.529Z,99.90
2019-03-13T05:11:04.989Z,99.90
2019-03-13T05:13:33.448Z,99.90
2019-03-13T05:16:02.251Z,99.90
2019-03-13T05:18:30.788Z,99.90
2019-03-13T05:20:59.248Z,99.90
2019-03-13T05:23:27.709Z,99.90
2019-03-13T05:25:56.411Z,99.90
2019-03-13T05:28:27.923Z,99.90
2019-03-13T05:30:56.365Z,99.90
2019-03-13T05:33:27.839Z,99.90
2019-03-13T05:35:56.287Z,99.90
2019-03-13T05:38:24.762Z,99.90
2019-03-13T05:40:53.281Z,99.90
2019-03-13T05:43:22.029Z,99.90
2019-03-13T05:45:50.734Z,99.90
2019-03-13T05:48:21.435Z,99.90
2019-03-13T05:50:52.743Z,99.90
2019-03-13T05:53:21.279Z,99.90
2019-03-13T05:55:49.716Z,99.90
2019-03-13T05:58:18.178Z,99.90
2019-03-13T06:00:46.625Z,99.90
2019-03-13T06:03:15.082Z,99.90
2019-03-13T06:05:43.530Z,99.90
2019-03-13T06:08:11.984Z,99.90
2019-03-13T06:10:40.448Z,99.90
2019-03-13T06:13:09.038Z,99.90
2019-03-13T06:15:37.490Z,99.90
2019-03-13T06:18:05.949Z,99.90
2019-03-13T06:20:36.015Z,99.90
2019-03-13T06:23:04.763Z,99.90
2019-03-13T06:25:33.201Z,99.90
2019-03-13T06:28:01.969Z,99.90
2019-03-13T06:30:30.879Z,99.90
2019-03-13T06:32:59.399Z,99.90
2019-03-13T06:35:28.123Z,99.90
2019-03-13T06:37:56.613Z,99.90
2019-03-13T06:40:25.132Z,99.90
2019-03-13T06:42:53.596Z,99.90
2019-03-13T06:45:23.478Z,99.90
2019-03-13T06:47:53.091Z,99.90
2019-03-13T06:50:26.006Z,99.90
2019-03-13T06:52:54.727Z,99.90
2019-03-13T06:55:23.168Z,99.90
2019-03-13T06:57:51.627Z,99.90
2019-03-13T07:00:26.862Z,99.90
2019-03-13T07:02:59.992Z,99.90
2019-03-13T07:05:54.039Z,99.90
2019-03-13T07:08:32.783Z,99.90
2019-03-13T07:11:21.237Z,99.90
2019-03-13T07:13:54.448Z,99.90
2019-03-13T07:16:39.696Z,99.90
2019-03-13T07:19:24.882Z,99.90
2019-03-13T07:21:54.174Z,99.90
2019-03-13T07:24:30.267Z,99.90
2019-03-13T07:27:03.068Z,99.90
2019-03-13T07:29:35.633Z,99.90
2019-03-13T07:32:22.451Z,99.90
2019-03-13T07:35:09.115Z,99.90
2019-03-13T07:37:41.924Z,99.90
2019-03-13T07:40:21.639Z,99.90
2019-03-13T07:43:00.875Z,99.90
2019-03-13T07:45:31.297Z,99.90
2019-03-13T07:48:13.260Z,99.90
2019-03-13T07:50:48.744Z,99.90
2019-03-13T07:53:37.139Z,99.90
2019-03-13T07:56:07.515Z,99.90
2019-03-13T07:58:37.613Z,99.90
2019-03-13T08:01:10.475Z,99.90
2019-03-13T08:03:49.542Z,99.90
2019-03-13T08:06:36.487Z,99.90
2019-03-13T08:09:24.754Z,99.90
2019-03-13T08:11:55.132Z,99.90
2019-03-13T08:14:30.990Z,99.90
2019-03-13T08:17:10.066Z,99.90
2019-03-13T08:19:46.884Z,99.90
2019-03-13T08:22:32.895Z,99.90
2019-03-13T08:25:08.100Z,99.90
2019-03-13T08:27:43.540Z,99.90
2019-03-13T08:30:15.248Z,99.90
2019-03-13T08:32:45.342Z,99.90
2019-03-13T08:35:15.577Z,99.90
2019-03-13T08:37:45.695Z,99.90
2019-03-13T08:40:15.921Z,98.60
2019-03-13T08:43:02.273Z,99.60
2019-03-13T08:45:32.425Z,99.90
2019-03-13T08:48:11.294Z,99.90
2019-03-13T08:50:44.455Z,99.90
2019-03-13T08:53:20.830Z,99.90
2019-03-13T08:56:05.976Z,99.90
2019-03-13T08:58:35.301Z,99.90
2019-03-13T09:01:06.050Z,99.90
2019-03-13T09:03:36.207Z,99.90
2019-03-13T09:06:15.797Z,99.90
2019-03-13T09:08:46.186Z,99.90
2019-03-13T09:11:22.598Z,99.90
2019-03-13T09:14:10.915Z,99.90
2019-03-13T09:16:50.324Z,99.90
2019-03-13T09:19:29.813Z,99.90
2019-03-13T09:22:05.731Z,99.90
2019-03-13T09:24:38.445Z,99.90
2019-03-13T09:27:23.517Z,99.90
2019-03-13T09:30:01.451Z,99.90
2019-03-13T09:32:37.311Z,99.90
2019-03-13T09:35:09.047Z,99.90
2019-03-13T09:37:39.411Z,86.80
2019-03-13T09:40:17.974Z,74.80
2019-03-13T09:42:51.029Z,73.40
2019-03-13T09:45:27.073Z,80.60
2019-03-13T09:48:12.778Z,85.40
2019-03-13T09:50:42.988Z,90.60
2019-03-13T09:53:21.872Z,91.50
2019-03-13T09:55:58.276Z,91.40
2019-03-13T09:58:28.653Z,91.60
2019-03-13T10:01:14.996Z,89.90
2019-03-13T10:03:50.558Z,91.60
2019-03-13T10:06:23.885Z,92.20
2019-03-13T10:09:00.213Z,91.70
2019-03-13T10:11:31.790Z,87.50
2019-03-13T10:14:11.067Z,87.90
2019-03-13T10:16:41.167Z,88.00
2019-03-13T10:19:28.575Z,85.40
2019-03-13T10:22:04.703Z,86.40
2019-03-13T10:24:40.201Z,87.40
2019-03-13T10:27:10.315Z,84.50
2019-03-13T10:29:46.462Z,78.50
2019-03-13T10:32:31.574Z,78.30
2019-03-13T10:35:15.860Z,74.40
2019-03-13T10:37:51.587Z,71.80
2019-03-13T10:40:36.724Z,72.90
2019-03-13T10:43:12.154Z,71.40
2019-03-13T10:45:42.570Z,71.50
2019-03-13T10:48:21.751Z,70.80
2019-03-13T10:50:55.068Z,71.60
2019-03-13T10:53:27.827Z,70.40
2019-03-13T10:56:10.355Z,67.10
2019-03-13T10:58:46.535Z,70.00
2019-03-13T11:01:16.625Z,66.20
2019-03-13T11:03:52.474Z,66.90
2019-03-13T11:06:25.451Z,67.60
2019-03-13T11:09:17.112Z,63.40
2019-03-13T11:12:02.114Z,64.50
2019-03-13T11:14:44.175Z,62.90
2019-03-13T11:17:31.432Z,61.40
2019-03-13T11:20:11.904Z,59.20
2019-03-13T11:22:48.045Z,58.20
2019-03-13T11:25:18.119Z,56.60
2019-03-13T11:27:48.319Z,58.50
2019-03-13T11:30:24.563Z,58.70
2019-03-13T11:33:12.827Z,58.30
2019-03-13T11:35:42.903Z,59.40
2019-03-13T11:38:15.515Z,60.00
2019-03-13T11:41:00.844Z,63.40
2019-03-13T11:43:36.379Z,60.90
2019-03-13T11:46:06.983Z,63.20
2019-03-13T11:48:54.962Z,62.90
2019-03-13T11:51:27.647Z,64.80
2019-03-13T11:54:01.046Z,65.60
2019-03-13T11:56:47.718Z,64.10
2019-03-13T11:59:39.195Z,60.10
2019-03-13T12:02:27.647Z,57.40
2019-03-13T12:05:01.048Z,58.70
2019-03-13T12:07:40.107Z,58.10
2019-03-13T12:10:29.558Z,59.70
2019-03-13T12:13:16.445Z,60.10
2019-03-13T12:15:55.588Z,63.30
2019-03-13T12:18:25.934Z,61.90
2019-03-13T12:21:04.220Z,60.60
2019-03-13T12:23:34.295Z,60.90
2019-03-13T12:26:13.351Z,59.60
2019-03-13T12:28:54.995Z,58.60
2019-03-13T12:31:40.827Z,59.30
2019-03-13T12:34:22.718Z,60.50
2019-03-13T12:37:09.062Z,63.40
2019-03-13T12:39:44.958Z,68.90
2019-03-13T12:42:21.089Z,71.70
2019-03-13T12:44:59.976Z,72.90
2019-03-13T12:47:30.927Z,72.80
2019-03-13T12:50:03.839Z,70.80
2019-03-13T12:52:50.078Z,72.10
2019-03-13T12:55:36.475Z,78.20
2019-03-13T12:58:12.543Z,85.20
2019-03-13T13:00:42.627Z,95.10
2019-03-13T13:03:15.708Z,99.90
2019-03-13T13:05:54.496Z,99.90
2019-03-13T13:08:27.078Z,99.90
2019-03-13T13:11:02.665Z,99.90
2019-03-13T13:13:38.522Z,99.90
2019-03-13T13:16:08.860Z,99.90
2019-03-13T13:18:51.532Z,95.60
2019-03-13T13:21:20.410Z,94.10
2019-03-13T13:23:49.202Z,91.50
2019-03-13T13:26:17.997Z,90.00
2019-03-13T13:28:46.456Z,97.60
2019-03-13T13:31:14.967Z,99.90
2019-03-13T13:33:43.637Z,99.90
2019-03-13T13:36:12.227Z,99.90
2019-03-13T13:38:40.807Z,99.90
2019-03-13T13:41:09.266Z,99.90
2019-03-13T13:43:37.993Z,99.90
2019-03-13T13:46:15.581Z,99.90
2019-03-13T13:48:44.109Z,99.90
2019-03-13T13:51:12.962Z,99.90
2019-03-13T13:53:41.425Z,99.90
2019-03-13T13:56:09.867Z,99.90
2019-03-13T13:58:38.618Z,99.90
2019-03-13T14:01:07.412Z,92.70
2019-03-13T14:03:35.884Z,90.80
2019-03-13T14:06:04.459Z,93.50
2019-03-13T14:08:33.170Z,99.90
2019-03-13T14:11:04.520Z,99.20
2019-03-13T14:13:33.239Z,99.00
2019-03-13T14:16:01.683Z,99.60
2019-03-13T14:18:30.403Z,98.80
2019-03-13T14:20:59.123Z,90.80
2019-03-13T14:23:27.591Z,71.10
2019-03-13T14:25:56.114Z,69.60
2019-03-13T14:28:24.584Z,63.40
2019-03-13T14:30:53.026Z,68.90
2019-03-13T14:33:21.504Z,75.70
2019-03-13T14:35:50.076Z,87.30
2019-03-13T14:38:18.538Z,93.90
2019-03-13T14:40:46.976Z,95.00
2019-03-13T14:43:15.507Z,92.70
2019-03-13T14:45:44.106Z,97.50
2019-03-13T14:48:12.816Z,99.90
2019-03-13T14:50:41.550Z,99.90
2019-03-13T14:53:09.994Z,99.90
2019-03-13T14:55:41.206Z,99.90
2019-03-13T14:58:09.650Z,99.90
2019-03-13T15:00:38.116Z,99.90
2019-03-13T15:03:06.573Z,99.90
2019-03-13T15:05:35.056Z,99.90
2019-03-13T15:08:03.617Z,99.90
2019-03-13T15:10:32.356Z,99.90
2019-03-13T15:13:00.848Z,99.90
2019-03-13T15:15:29.607Z,99.90
2019-03-13T15:17:58.311Z,99.90
2019-03-13T15:20:30.203Z,99.90
2019-03-13T15:22:59.129Z,99.90
2019-03-13T15:25:27.862Z,99.90
2019-03-13T15:27:56.299Z,99.90
2019-03-13T15:30:30.475Z,99.90
2019-03-13T15:32:59.047Z,99.90
2019-03-13T15:35:27.510Z,99.90
2019-03-13T15:37:56.091Z,99.90
2019-03-13T15:40:24.815Z,99.90
2019-03-13T15:42:53.326Z,99.90
2019-03-13T15:45:26.942Z,98.90
2019-03-13T15:47:55.391Z,99.60
2019-03-13T15:50:26.863Z,99.90
2019-03-13T15:52:56.204Z,99.80
2019-03-13T15:55:25.096Z,99.90
2019-03-13T15:57:53.531Z,99.90
2019-03-13T16:00:29.139Z,99.90
2019-03-13T16:02:57.579Z,98.60
2019-03-13T16:05:26.213Z,99.90
2019-03-13T16:07:54.667Z,99.90
2019-03-13T16:10:23.154Z,99.90
2019-03-13T16:12:53.374Z,99.90
2019-03-13T16:15:25.181Z,99.90
2019-03-13T16:17:53.828Z,99.90
2019-03-13T16:20:28.268Z,99.90
2019-03-13T16:22:58.360Z,99.90
2019-03-13T16:25:26.905Z,99.90
2019-03-13T16:27:55.609Z,99.90
2019-03-13T16:30:36.123Z,99.90
2019-03-13T16:33:04.710Z,99.90
2019-03-13T16:35:33.181Z,99.90
2019-03-13T16:38:01.615Z,99.90
2019-03-13T16:40:31.789Z,99.90
2019-03-13T16:43:00.326Z,99.90
2019-03-13T16:45:28.947Z,99.90
2019-03-13T16:47:57.389Z,99.90
2019-03-13T16:50:31.877Z,99.90
2019-03-13T16:53:00.315Z,99.90
2019-03-13T16:55:28.782Z,99.90
2019-03-13T16:57:57.609Z,99.90
2019-03-13T17:00:27.417Z,99.90
2019-03-13T17:02:56.086Z,99.90
2019-03-13T17:05:24.683Z,99.90
2019-03-13T17:07:53.474Z,99.90
2019-03-13T17:10:23.761Z,99.90
2019-03-13T17:12:52.607Z,99.90
2019-03-13T17:15:22.642Z,99.90
2019-03-13T17:17:51.237Z,99.90
2019-03-13T17:20:41.775Z,99.90
2019-03-13T17:23:10.214Z,99.90
2019-03-13T17:25:39.018Z,99.90
2019-03-13T17:28:07.463Z,99.90
2019-03-13T17:30:36.167Z,99.90
2019-03-13T17:33:04.694Z,99.90
2019-03-13T17:35:35.876Z,99.90
2019-03-13T17:38:04.344Z,99.90
2019-03-13T17:40:33.726Z,99.90
2019-03-13T17:43:02.267Z,99.90
2019-03-13T17:45:30.767Z,99.90
2019-03-13T17:47:59.232Z,99.90
2019-03-13T17:50:30.787Z,99.90
2019-03-13T17:52:59.247Z,99.90
2019-03-13T17:55:28.165Z,99.90
2019-03-13T17:57:56.782Z,99.90
2019-03-13T18:00:29.961Z,99.90
2019-03-13T18:02:58.605Z,99.90
2019-03-13T18:05:27.429Z,99.90
2019-03-13T18:07:55.966Z,99.90
2019-03-13T18:10:24.416Z,99.90
2019-03-13T18:12:53.168Z,99.90
2019-03-13T18:15:21.967Z,99.90
2019-03-13T18:17:50.442Z,99.90
2019-03-13T18:20:23.104Z,99.90
2019-03-13T18:22:51.644Z,99.90
2019-03-13T18:25:20.155Z,99.90
2019-03-13T18:27:51.756Z,99.90
2019-03-13T18:30:22.336Z,99.90
2019-03-13T18:32:50.948Z,99.90
2019-03-13T18:35:20.334Z,99.90
2019-03-13T18:37:49.032Z,99.90
2019-03-13T18:40:25.664Z,99.90
2019-03-13T18:42:54.259Z,99.90
2019-03-13T18:45:32.932Z,99.90
2019-03-13T18:48:01.401Z,99.90
2019-03-13T18:50:30.318Z,99.90
2019-03-13T18:52:59.715Z,99.90
2019-03-13T18:55:29.798Z,99.90
2019-03-13T18:57:58.597Z,99.90
2019-03-13T19:00:29.717Z,99.90
2019-03-13T19:02:59.258Z,99.90
2019-03-13T19:05:29.504Z,99.90
2019-03-13T19:07:58.143Z,99.90
2019-03-13T19:10:31.175Z,99.90
2019-03-13T19:13:02.660Z,99.90
2019-03-13T19:15:31.277Z,99.90
2019-03-13T19:18:00.934Z,99.90
2019-03-13T19:20:30.770Z,99.90
2019-03-13T19:22:59.378Z,99.90
2019-03-13T19:25:27.813Z,99.90
2019-03-13T19:28:02.441Z,99.90
2019-03-13T19:30:33.088Z,99.90
2019-03-13T19:33:01.543Z,99.90
2019-03-13T19:35:30.066Z,99.90
2019-03-13T19:38:04.786Z,99.90
2019-03-13T19:40:31.931Z,99.90
2019-03-13T19:43:00.682Z,99.90
2019-03-13T19:45:31.559Z,99.90
2019-03-13T19:48:01.454Z,99.90
2019-03-13T19:50:30.707Z,99.90
2019-03-13T19:52:59.251Z,99.90
2019-03-13T19:55:27.954Z,99.90
2019-03-13T19:57:56.581Z,99.90
2019-03-13T20:00:28.595Z,99.90
2019-03-13T20:03:00.792Z,99.90
2019-03-13T20:05:29.595Z,99.90
2019-03-13T20:08:01.058Z,99.90
2019-03-13T20:10:30.584Z,99.90
2019-03-13T20:12:59.102Z,99.90
2019-03-13T20:15:34.910Z,99.90
2019-03-13T20:18:03.496Z,99.90
2019-03-13T20:20:31.965Z,99.90
2019-03-13T20:23:05.110Z,99.90
2019-03-13T20:25:33.903Z,99.90
2019-03-13T20:28:02.348Z,99.90
2019-03-13T20:30:31.223Z,99.90
2019-03-13T20:32:59.671Z,99.90
2019-03-13T20:35:28.395Z,99.90
2019-03-13T20:37:57.222Z,99.90
2019-03-13T20:40:27.271Z,99.90
2019-03-13T20:42:55.859Z,99.90
2019-03-13T20:45:29.113Z,99.90
2019-03-13T20:47:57.761Z,99.90
2019-03-13T20:50:36.609Z,99.90
2019-03-13T20:52:56.591Z,99.90
2019-03-13T20:55:25.183Z,99.90
2019-03-13T20:57:54.059Z,99.90
2019-03-13T21:00:23.954Z,99.90
2019-03-13T21:02:54.199Z,99.90
2019-03-13T21:05:23.242Z,99.90
2019-03-13T21:07:51.882Z,99.90
2019-03-13T21:10:20.621Z,99.90
2019-03-13T21:12:49.105Z,99.90
2019-03-13T21:15:20.464Z,99.90
2019-03-13T21:17:49.323Z,99.90
2019-03-13T21:20:19.131Z,99.90
2019-03-13T21:22:47.578Z,99.90
2019-03-13T21:25:20.518Z,99.90
2019-03-13T21:27:50.524Z,99.90
2019-03-13T21:30:26.812Z,99.90
2019-03-13T21:32:55.539Z,99.90
2019-03-13T21:35:24.377Z,99.90
2019-03-13T21:37:53.228Z,99.90
2019-03-13T21:40:24.188Z,99.90
2019-03-13T21:42:54.382Z,99.90
2019-03-13T21:45:23.339Z,99.90
2019-03-13T21:47:52.051Z,99.90
2019-03-13T21:50:21.059Z,99.90
2019-03-13T21:52:49.738Z,99.90
2019-03-13T21:55:21.698Z,99.90
2019-03-13T21:57:51.856Z,99.90
2019-03-13T22:00:25.158Z,99.90
2019-03-13T22:02:58.350Z,99.90
2019-03-13T22:05:27.664Z,99.90
2019-03-13T22:07:56.342Z,99.90
2019-03-13T22:10:24.898Z,99.90
2019-03-13T22:12:53.863Z,99.90
2019-03-13T22:15:23.336Z,99.90
2019-03-13T22:17:51.872Z,99.90
2019-03-13T22:20:20.981Z,99.90
2019-03-13T22:22:55.215Z,99.90
2019-03-13T22:25:23.685Z,99.90
2019-03-13T22:27:55.006Z,99.90
2019-03-13T22:30:24.784Z,99.90
2019-03-13T22:32:53.297Z,99.90
2019-03-13T22:35:21.903Z,99.90
2019-03-13T22:37:50.488Z,99.90
2019-03-13T22:40:22.339Z,99.90
2019-03-13T22:42:50.782Z,99.90
2019-03-13T22:45:21.439Z,99.90
2019-03-13T22:47:49.983Z,99.90
2019-03-13T22:50:23.495Z,99.90
2019-03-13T22:52:55.165Z,99.90
2019-03-13T22:55:25.495Z,99.90
2019-03-13T22:57:54.037Z,99.90
2019-03-13T23:00:36.190Z,99.90
2019-03-13T23:03:05.125Z,99.90
2019-03-13T23:05:36.006Z,99.90
2019-03-13T23:08:03.824Z,99.90
2019-03-13T23:10:34.677Z,99.90
2019-03-13T23:13:03.216Z,99.90
2019-03-13T23:15:31.923Z,99.90
2019-03-13T23:18:00.388Z,99.90
2019-03-13T23:20:31.567Z,99.90
2019-03-13T23:23:00.033Z,99.90
2019-03-13T23:25:29.116Z,99.90
2019-03-13T23:27:57.872Z,99.90
2019-03-13T23:30:26.448Z,99.90
2019-03-13T23:32:55.003Z,99.90
2019-03-13T23:35:23.523Z,99.90
2019-03-13T23:37:51.989Z,99.90
2019-03-13T23:40:20.460Z,99.90
2019-03-13T23:42:49.064Z,99.90
2019-03-13T23:45:22.133Z,99.90
2019-03-13T23:47:50.615Z,99.90
2019-03-13T23:50:33.946Z,99.90
2019-03-13T23:53:02.522Z,99.90
2019-03-13T23:55:31.294Z,99.90
2019-03-13T23:57:59.741Z,99.90
